Time;durP1;ratioP1;P1;durP2;ratioP2;P2;SDS_P1;SDS_P2;PMS_P1;PMS_P2;Temp;Humidity;BMP_temperature;BMP_pressure;BME280_temperature;BME280_humidity;BME280_pressure;Samples;Min_cycle;Max_cycle;Signal;HPM_P1;HPM_P2
2023/07/09 00:00:48;;;;;;;2.63;2.42;;;23.20;63.00;;;;;;5041847;28;20207;-74
2023/07/09 00:03:15;;;;;;;2.78;2.53;;;23.20;63.00;;;;;;5016860;28;20663;-74
2023/07/09 00:05:42;;;;;;;3.30;2.33;;;23.20;63.00;;;;;;5017125;28;20211;-74
2023/07/09 00:08:37;;;;;;;3.00;2.38;;;23.20;63.00;;;;;;5033401;28;20187;-74
2023/07/09 00:11:03;;;;;;;3.88;2.83;;;23.10;62.90;;;;;;5017049;28;20199;-74
2023/07/09 00:13:29;;;;;;;3.00;2.58;;;23.10;62.90;;;;;;5017282;28;20252;-74
2023/07/09 00:16:00;;;;;;;2.70;2.40;;;23.20;63.00;;;;;;5017103;28;20207;-74
2023/07/09 00:18:26;;;;;;;2.70;2.50;;;23.20;63.00;;;;;;5049718;28;20191;-74
2023/07/09 00:20:52;;;;;;;2.70;2.50;;;23.20;63.00;;;;;;5045154;28;20586;-74
2023/07/09 00:23:19;;;;;;;3.22;2.80;;;23.20;63.00;;;;;;5024764;28;20193;-73
2023/07/09 00:25:46;;;;;;;2.65;2.42;;;23.20;63.00;;;;;;5016947;28;20199;-73
2023/07/09 00:28:18;;;;;;;2.97;2.78;;;23.10;62.90;;;;;;5025028;28;20187;-74
2023/07/09 00:30:46;;;;;;;2.95;2.65;;;23.10;62.90;;;;;;5044020;28;20194;-74
2023/07/09 00:33:14;;;;;;;3.15;2.85;;;23.20;63.10;;;;;;5016599;28;20448;-74
2023/07/09 00:35:42;;;;;;;3.20;2.90;;;23.20;63.10;;;;;;5015808;28;20219;-74
2023/07/09 00:38:15;;;;;;;3.05;2.40;;;23.10;62.90;;;;;;5033100;28;20201;-73
2023/07/09 00:40:58;;;;;;;3.25;2.95;;;23.10;62.90;;;;;;5042997;28;20222;-74
2023/07/09 00:43:27;;;;;;;3.08;2.78;;;23.10;63.00;;;;;;5024738;28;20202;-73
2023/07/09 00:46:27;;;;;;;4.25;2.92;;;23.10;63.00;;;;;;5016093;28;20203;-74
2023/07/09 00:49:04;;;;;;;3.33;2.88;;;23.10;62.90;;;;;;5011804;28;20662;-74
2023/07/09 00:51:34;;;;;;;3.30;2.95;;;23.10;63.00;;;;;;5029412;28;20310;-74
2023/07/09 00:54:14;;;;;;;2.90;2.70;;;23.10;63.00;;;;;;5020128;28;20202;-74
2023/07/09 00:56:46;;;;;;;2.92;2.60;;;23.10;63.00;;;;;;5023044;28;20186;-74
2023/07/09 00:59:20;;;;;;;2.70;2.50;;;23.10;63.10;;;;;;5015860;28;20596;-75
2023/07/09 01:01:49;;;;;;;3.10;2.60;;;23.10;63.00;;;;;;5041748;28;20182;-74
2023/07/09 01:04:21;;;;;;;2.63;2.42;;;23.10;63.00;;;;;;5015930;28;20586;-73
2023/07/09 01:06:56;;;;;;;3.03;2.50;;;23.10;63.00;;;;;;5024503;28;20187;-74
2023/07/09 01:09:24;;;;;;;2.80;2.60;;;23.10;63.00;;;;;;5039966;28;20207;-74
2023/07/09 01:11:50;;;;;;;2.80;2.60;;;23.10;63.10;;;;;;5012737;28;20184;-74
2023/07/09 01:14:21;;;;;;;3.00;2.40;;;23.10;63.10;;;;;;5030627;28;20208;-73
2023/07/09 01:17:04;;;;;;;2.70;2.50;;;23.10;63.00;;;;;;5029109;28;20195;-74
2023/07/09 01:19:42;;;;;;;2.50;2.30;;;23.10;63.00;;;;;;5008637;28;20599;-73
2023/07/09 01:22:17;;;;;;;2.85;2.65;;;23.10;63.10;;;;;;5045882;28;20555;-73
2023/07/09 01:25:06;;;;;;;2.90;2.70;;;23.10;63.10;;;;;;5015334;28;20206;-74
2023/07/09 01:27:46;;;;;;;2.70;2.50;;;23.10;63.10;;;;;;5020743;28;20612;-74
2023/07/09 01:30:38;;;;;;;2.53;2.33;;;23.10;63.10;;;;;;5029691;28;20210;-74
2023/07/09 01:33:06;;;;;;;2.92;2.70;;;23.10;63.00;;;;;;5022037;28;20206;-73
2023/07/09 01:35:40;;;;;;;2.70;2.50;;;23.10;63.90;;;;;;5032204;28;20215;-74
2023/07/09 01:38:08;;;;;;;2.67;2.47;;;23.10;63.10;;;;;;5015858;28;20191;-74
2023/07/09 01:40:36;;;;;;;2.40;2.20;;;23.10;63.10;;;;;;5047620;28;20199;-74
2023/07/09 01:43:06;;;;;;;2.70;2.50;;;23.10;63.10;;;;;;5030771;28;20192;-73
2023/07/09 01:45:34;;;;;;;3.00;2.70;;;23.10;63.10;;;;;;5022092;28;20206;-74
2023/07/09 01:48:01;;;;;;;2.70;2.50;;;23.10;63.10;;;;;;5018967;28;20203;-74
2023/07/09 01:50:27;;;;;;;2.88;2.40;;;23.10;63.10;;;;;;5039725;28;20226;-74
2023/07/09 01:52:55;;;;;;;2.67;2.47;;;23.10;63.10;;;;;;5031274;28;20218;-74
2023/07/09 01:55:21;;;;;;;2.65;2.45;;;23.10;63.10;;;;;;5030316;28;20298;-74
2023/07/09 01:57:48;;;;;;;2.90;2.53;;;23.10;63.10;;;;;;5027855;28;20655;-74
2023/07/09 02:00:16;;;;;;;2.78;2.58;;;23.10;63.10;;;;;;5030505;28;20355;-74
2023/07/09 02:02:45;;;;;;;3.40;2.70;;;23.10;63.10;;;;;;5027178;28;20182;-74
2023/07/09 02:05:15;;;;;;;2.55;2.35;;;23.10;63.10;;;;;;5032565;28;20218;-74
2023/07/09 02:07:41;;;;;;;3.05;2.63;;;23.10;63.10;;;;;;5014919;28;20263;-74
2023/07/09 02:10:08;;;;;;;3.05;2.30;;;23.10;63.10;;;;;;5014606;28;20246;-73
2023/07/09 02:12:34;;;;;;;3.10;2.50;;;23.10;63.10;;;;;;5028490;28;20551;-74
2023/07/09 02:15:00;;;;;;;2.75;2.50;;;23.00;63.00;;;;;;5007734;28;20200;-74
2023/07/09 02:17:25;;;;;;;2.58;2.20;;;23.00;63.10;;;;;;5030351;28;20670;-74
2023/07/09 02:19:51;;;;;;;2.70;2.50;;;23.10;63.20;;;;;;5030926;28;20218;-74
2023/07/09 02:22:19;;;;;;;2.53;2.33;;;23.00;63.10;;;;;;5014738;28;20199;-74
2023/07/09 02:24:45;;;;;;;3.13;2.53;;;23.10;63.10;;;;;;5038344;28;20204;-73
2023/07/09 02:27:17;;;;;;;2.40;2.20;;;23.00;63.10;;;;;;5012295;28;20191;-73
2023/07/09 02:29:43;;;;;;;2.88;2.58;;;23.10;63.10;;;;;;5014765;28;20215;-73
2023/07/09 02:32:17;;;;;;;3.05;2.75;;;23.00;63.10;;;;;;5014412;28;20278;-73
2023/07/09 02:34:42;;;;;;;2.90;2.60;;;23.00;63.10;;;;;;5037825;28;20220;-74
2023/07/09 02:37:08;;;;;;;3.20;2.63;;;23.00;63.10;;;;;;5025586;28;20196;-73
2023/07/09 02:39:34;;;;;;;2.63;2.42;;;23.00;63.10;;;;;;5013986;28;20222;-74
2023/07/09 02:42:01;;;;;;;2.97;2.78;;;23.00;63.10;;;;;;5011480;28;20180;-73
2023/07/09 02:44:27;;;;;;;2.70;2.50;;;23.00;63.10;;;;;;5035603;28;20261;-73
2023/07/09 02:46:52;;;;;;;2.65;2.45;;;23.00;63.10;;;;;;5014375;28;20571;-73
2023/07/09 02:49:18;;;;;;;2.88;2.65;;;23.00;63.10;;;;;;5030663;28;20191;-73
2023/07/09 02:51:44;;;;;;;2.70;2.50;;;23.00;63.10;;;;;;5041008;28;20182;-73
2023/07/09 02:54:10;;;;;;;2.67;2.47;;;23.00;63.10;;;;;;5011313;28;20216;-73
2023/07/09 02:56:35;;;;;;;2.53;2.33;;;23.00;63.10;;;;;;5028621;28;20203;-73
2023/07/09 02:59:01;;;;;;;2.67;2.47;;;23.00;63.10;;;;;;5006710;28;20192;-73
2023/07/09 03:01:27;;;;;;;2.67;2.47;;;23.00;63.10;;;;;;5013904;28;20230;-73
2023/07/09 03:03:59;;;;;;;2.35;2.15;;;23.00;63.10;;;;;;5033697;28;20207;-73
2023/07/09 03:06:26;;;;;;;3.13;2.83;;;23.00;63.10;;;;;;5013890;28;20198;-73
2023/07/09 03:08:52;;;;;;;2.50;2.30;;;23.00;63.10;;;;;;5029912;28;20199;-74
2023/07/09 03:11:20;;;;;;;3.08;2.75;;;23.00;63.10;;;;;;5013739;28;20194;-74
2023/07/09 03:13:47;;;;;;;2.40;2.20;;;23.00;63.10;;;;;;5044015;28;20256;-72
2023/07/09 03:16:15;;;;;;;2.78;2.50;;;23.00;63.10;;;;;;5016232;28;20201;-73
2023/07/09 03:18:41;;;;;;;2.72;2.50;;;23.00;63.10;;;;;;5013796;28;20183;-74
2023/07/09 03:21:07;;;;;;;2.60;2.40;;;23.00;63.10;;;;;;5013619;28;20233;-73
2023/07/09 03:23:32;;;;;;;2.88;2.58;;;23.00;63.20;;;;;;5014008;28;20278;-73
2023/07/09 03:25:59;;;;;;;2.63;2.42;;;23.00;63.20;;;;;;5010419;28;20291;-74
2023/07/09 03:28:26;;;;;;;2.58;2.38;;;23.00;63.20;;;;;;5045368;28;20550;-73
2023/07/09 03:30:55;;;;;;;4.07;2.67;;;23.00;63.20;;;;;;5032255;28;20195;-73
2023/07/09 03:33:22;;;;;;;3.08;2.78;;;23.00;63.20;;;;;;5030058;28;20647;-73
2023/07/09 03:35:48;;;;;;;2.70;2.50;;;23.00;63.20;;;;;;5037597;28;20220;-74
2023/07/09 03:38:13;;;;;;;2.67;2.47;;;23.00;63.20;;;;;;5011696;28;20218;-73
2023/07/09 03:40:39;;;;;;;2.65;2.45;;;23.00;63.20;;;;;;5013761;28;20208;-73
2023/07/09 03:43:08;;;;;;;2.97;2.70;;;22.90;63.00;;;;;;5013747;28;20221;-72
2023/07/09 03:45:36;;;;;;;2.38;2.17;;;22.90;63.00;;;;;;5041897;28;20211;-73
2023/07/09 03:48:04;;;;;;;2.78;2.40;;;23.00;63.20;;;;;;5034047;28;20194;-73
2023/07/09 03:50:30;;;;;;;2.63;2.40;;;22.90;63.10;;;;;;5030139;28;20183;-74
2023/07/09 03:52:57;;;;;;;2.97;2.72;;;22.90;63.00;;;;;;5013882;28;20613;-73
2023/07/09 03:55:26;;;;;;;2.67;2.47;;;22.90;63.10;;;;;;5028819;28;20220;-74
2023/07/09 03:57:55;;;;;;;2.75;2.55;;;22.90;63.10;;;;;;5038195;28;20198;-73
2023/07/09 04:00:22;;;;;;;2.53;2.33;;;22.90;63.10;;;;;;5028709;28;20638;-74
2023/07/09 04:02:48;;;;;;;2.70;2.50;;;23.00;63.20;;;;;;5041112;28;20259;-74
2023/07/09 04:05:14;;;;;;;3.22;2.47;;;22.90;63.10;;;;;;5013260;28;20210;-74
2023/07/09 04:07:40;;;;;;;2.28;2.08;;;22.90;63.10;;;;;;5013603;28;20185;-74
2023/07/09 04:10:07;;;;;;;2.63;2.42;;;22.90;63.90;;;;;;5025613;28;20287;-73
2023/07/09 04:12:33;;;;;;;2.53;2.33;;;22.90;63.10;;;;;;5020996;28;20202;-74
2023/07/09 04:14:58;;;;;;;2.70;2.47;;;22.90;63.10;;;;;;5020521;28;20213;-74
2023/07/09 04:17:24;;;;;;;2.53;2.33;;;22.90;63.10;;;;;;5017168;28;20199;-74
2023/07/09 04:19:51;;;;;;;2.83;2.42;;;22.90;63.10;;;;;;5041419;28;20219;-74
2023/07/09 04:22:17;;;;;;;2.35;2.15;;;22.90;63.10;;;;;;5021688;28;20194;-74
2023/07/09 04:24:44;;;;;;;2.45;2.25;;;22.90;63.10;;;;;;5042796;28;20219;-74
2023/07/09 04:27:10;;;;;;;2.50;2.30;;;22.90;63.10;;;;;;5016629;28;20183;-74
2023/07/09 04:29:38;;;;;;;2.17;2.03;;;22.90;63.10;;;;;;5042218;28;20225;-74
2023/07/09 04:32:11;;;;;;;2.63;2.28;;;22.90;63.10;;;;;;5017043;28;20242;-74
2023/07/09 04:34:38;;;;;;;2.40;2.17;;;22.90;63.10;;;;;;5008867;28;20323;-74
2023/07/09 04:37:09;;;;;;;3.15;2.45;;;22.90;63.20;;;;;;5025447;28;20226;-74
2023/07/09 04:39:35;;;;;;;3.30;2.50;;;22.90;63.20;;;;;;5013180;28;20216;-73
2023/07/09 04:42:02;;;;;;;2.70;2.50;;;22.90;63.20;;;;;;5029361;28;20222;-74
2023/07/09 04:44:28;;;;;;;2.35;2.15;;;22.90;63.20;;;;;;5015508;28;20270;-73
2023/07/09 04:46:54;;;;;;;2.45;2.25;;;22.90;63.20;;;;;;5044386;28;20214;-73
2023/07/09 04:49:20;;;;;;;2.67;2.47;;;22.90;63.20;;;;;;5014876;28;20231;-73
2023/07/09 04:51:45;;;;;;;2.75;2.55;;;22.90;63.20;;;;;;5024687;28;20187;-73
2023/07/09 04:54:14;;;;;;;2.72;2.40;;;22.90;63.20;;;;;;5015942;28;20203;-74
2023/07/09 04:56:44;;;;;;;2.85;2.42;;;22.90;63.30;;;;;;5016351;28;20187;-73
2023/07/09 04:59:11;;;;;;;2.25;2.05;;;22.90;63.30;;;;;;5032088;28;20627;-73
2023/07/09 05:01:38;;;;;;;3.15;2.60;;;22.90;63.30;;;;;;5016118;28;20214;-74
2023/07/09 05:04:04;;;;;;;3.08;2.55;;;22.90;63.30;;;;;;5012582;28;20212;-74
2023/07/09 05:06:30;;;;;;;3.05;2.10;;;22.90;63.40;;;;;;5021429;28;20186;-73
2023/07/09 05:08:56;;;;;;;2.65;2.45;;;22.90;63.40;;;;;;5008398;28;20222;-73
2023/07/09 05:11:22;;;;;;;2.60;2.38;;;22.90;63.40;;;;;;5014798;28;20624;-73
2023/07/09 05:13:48;;;;;;;2.50;2.30;;;22.90;63.40;;;;;;5015266;28;20671;-73
2023/07/09 05:16:14;;;;;;;2.97;2.67;;;22.90;63.40;;;;;;5024110;28;20566;-73
2023/07/09 05:18:39;;;;;;;2.50;2.30;;;22.90;63.40;;;;;;5033885;28;20222;-74
2023/07/09 05:21:05;;;;;;;2.60;2.40;;;22.90;63.50;;;;;;5028533;28;20666;-74
2023/07/09 05:23:31;;;;;;;2.85;2.60;;;22.90;63.40;;;;;;5019236;28;20237;-73
2023/07/09 05:25:59;;;;;;;2.35;2.15;;;22.90;63.50;;;;;;5020247;28;20226;-74
2023/07/09 05:28:25;;;;;;;2.22;2.08;;;22.90;63.50;;;;;;5031818;28;20183;-73
2023/07/09 05:30:51;;;;;;;2.42;2.22;;;22.90;63.60;;;;;;5031961;28;20187;-74
2023/07/09 05:33:18;;;;;;;2.40;2.20;;;22.90;63.50;;;;;;5023719;28;20202;-73
2023/07/09 05:35:45;;;;;;;3.10;2.80;;;22.90;63.60;;;;;;5011265;28;20305;-74
2023/07/09 05:38:12;;;;;;;2.63;2.38;;;22.90;63.70;;;;;;5029330;28;20270;-74
2023/07/09 05:40:38;;;;;;;2.63;2.42;;;22.90;63.70;;;;;;5020778;28;20203;-73
2023/07/09 05:43:04;;;;;;;2.65;2.42;;;22.90;63.90;;;;;;5015316;28;20543;-74
2023/07/09 05:45:31;;;;;;;2.88;2.58;;;22.90;63.90;;;;;;5017952;28;20228;-73
2023/07/09 05:47:58;;;;;;;2.65;2.45;;;22.90;64.00;;;;;;5033478;28;20203;-73
2023/07/09 05:50:25;;;;;;;2.40;2.20;;;22.90;64.00;;;;;;5013878;28;20191;-74
2023/07/09 05:52:51;;;;;;;2.40;2.20;;;22.90;64.00;;;;;;5012231;28;20203;-73
2023/07/09 05:55:16;;;;;;;2.80;2.30;;;22.90;63.90;;;;;;5029203;28;20213;-74
2023/07/09 05:57:42;;;;;;;2.92;2.63;;;22.90;64.00;;;;;;5015243;28;20226;-74
2023/07/09 06:00:09;;;;;;;2.75;2.55;;;22.90;64.00;;;;;;5014432;28;20293;-73
2023/07/09 06:02:40;;;;;;;2.80;2.40;;;22.90;64.00;;;;;;5046654;28;20198;-73
2023/07/09 06:05:09;;;;;;;2.40;2.20;;;22.90;64.00;;;;;;5044090;28;20215;-74
2023/07/09 06:07:35;;;;;;;2.60;2.40;;;22.90;64.10;;;;;;5031487;28;20209;-73
2023/07/09 06:10:01;;;;;;;2.42;2.22;;;22.90;64.40;;;;;;5015861;28;20279;-72
2023/07/09 06:12:26;;;;;;;2.40;2.20;;;22.90;64.40;;;;;;5015076;28;20207;-73
2023/07/09 06:14:52;;;;;;;2.50;2.30;;;22.90;64.50;;;;;;5042105;28;20214;-74
2023/07/09 06:17:18;;;;;;;2.60;2.40;;;22.90;64.50;;;;;;5022981;28;20187;-73
2023/07/09 06:19:44;;;;;;;2.58;2.38;;;22.90;64.60;;;;;;5014923;28;20285;-73
2023/07/09 06:22:09;;;;;;;2.50;2.30;;;22.90;64.60;;;;;;5014625;28;20586;-74
2023/07/09 06:24:35;;;;;;;2.70;2.50;;;22.90;64.70;;;;;;5014169;28;20203;-73
2023/07/09 06:27:01;;;;;;;2.75;2.05;;;22.90;64.70;;;;;;5019557;28;20206;-72
2023/07/09 06:29:27;;;;;;;2.72;2.53;;;22.90;64.80;;;;;;5029984;28;20194;-73
2023/07/09 06:31:53;;;;;;;2.67;2.28;;;22.90;64.80;;;;;;5019678;28;20198;-73
2023/07/09 06:34:18;;;;;;;2.70;2.50;;;22.90;64.90;;;;;;5045345;28;20208;-73
2023/07/09 06:36:44;;;;;;;3.33;2.60;;;22.90;64.90;;;;;;5014376;28;20281;-74
2023/07/09 06:39:10;;;;;;;4.03;2.45;;;22.90;64.80;;;;;;5036578;28;20230;-73
2023/07/09 06:41:39;;;;;;;2.60;2.40;;;22.90;65.00;;;;;;5038784;28;20237;-74
2023/07/09 06:44:09;;;;;;;2.60;2.40;;;22.90;65.00;;;;;;5014034;28;20218;-75
2023/07/09 06:46:35;;;;;;;3.47;2.65;;;22.90;65.10;;;;;;5027428;28;20188;-74
2023/07/09 06:49:03;;;;;;;2.63;2.42;;;22.90;65.20;;;;;;5009967;28;20325;-74
2023/07/09 06:51:29;;;;;;;2.85;2.65;;;22.90;65.00;;;;;;5030793;28;20227;-73
2023/07/09 06:53:55;;;;;;;2.95;2.65;;;22.90;65.00;;;;;;5013598;28;20270;-73
2023/07/09 06:56:21;;;;;;;2.75;2.55;;;22.90;65.50;;;;;;5045734;28;20191;-73
2023/07/09 06:58:47;;;;;;;2.75;2.47;;;22.90;65.40;;;;;;5016302;28;20195;-73
2023/07/09 07:01:13;;;;;;;2.55;2.10;;;22.90;65.50;;;;;;5013977;28;20215;-73
2023/07/09 07:03:40;;;;;;;2.55;2.35;;;22.90;65.20;;;;;;5030805;28;20250;-73
2023/07/09 07:06:06;;;;;;;2.83;2.63;;;22.90;64.80;;;;;;5014121;28;20179;-73
2023/07/09 07:08:33;;;;;;;2.80;2.50;;;22.90;65.60;;;;;;5029883;28;20214;-74
2023/07/09 07:11:02;;;;;;;2.83;2.63;;;22.90;65.00;;;;;;5014745;28;20274;-74
2023/07/09 07:13:30;;;;;;;3.28;2.67;;;22.90;64.90;;;;;;5030201;28;20278;-74
2023/07/09 07:15:56;;;;;;;3.03;2.53;;;22.90;64.90;;;;;;5041084;28;20705;-74
2023/07/09 07:18:23;;;;;;;3.03;2.40;;;22.90;64.80;;;;;;5012180;28;20195;-74
2023/07/09 07:20:50;;;;;;;2.65;2.38;;;23.00;65.00;;;;;;5013192;28;20207;-74
2023/07/09 07:23:17;;;;;;;2.65;2.45;;;23.00;64.90;;;;;;5028816;28;20215;-74
2023/07/09 07:25:46;;;;;;;4.47;2.65;;;23.00;64.80;;;;;;5023298;28;20207;-74
2023/07/09 07:28:11;;;;;;;2.92;2.63;;;23.00;64.80;;;;;;5029888;28;20187;-73
2023/07/09 07:30:37;;;;;;;2.90;2.40;;;23.00;64.80;;;;;;5038541;28;20190;-74
2023/07/09 07:33:03;;;;;;;2.80;2.60;;;23.00;64.70;;;;;;5029959;28;20192;-74
2023/07/09 07:35:29;;;;;;;2.83;2.63;;;23.00;64.80;;;;;;5012723;28;20261;-74
2023/07/09 07:37:55;;;;;;;3.25;2.95;;;23.00;64.70;;;;;;5022133;28;20195;-74
2023/07/09 07:40:21;;;;;;;4.45;2.28;;;23.00;64.80;;;;;;5021196;28;20218;-74
2023/07/09 07:42:46;;;;;;;3.17;2.83;;;23.00;64.80;;;;;;5013958;28;20211;-73
2023/07/09 07:45:13;;;;;;;2.70;2.50;;;23.00;64.70;;;;;;5013388;28;20226;-74
2023/07/09 07:47:39;;;;;;;3.28;2.88;;;23.00;64.70;;;;;;5030550;28;20184;-73
2023/07/09 07:50:07;;;;;;;3.00;2.40;;;23.00;64.70;;;;;;5021871;28;20191;-74
2023/07/09 07:52:37;;;;;;;3.65;2.72;;;23.10;64.70;;;;;;5034107;28;20237;-74
2023/07/09 07:55:12;;;;;;;3.88;2.72;;;23.10;64.60;;;;;;5016608;28;20629;-74
2023/07/09 07:57:37;;;;;;;3.40;2.45;;;23.10;64.50;;;;;;5033861;28;20221;-74
2023/07/09 08:00:04;;;;;;;2.90;2.30;;;23.10;64.50;;;;;;5013493;28;20219;-73
2023/07/09 08:02:38;;;;;;;3.33;2.88;;;23.10;64.70;;;;;;5019623;28;20175;-74
2023/07/09 08:05:05;;;;;;;3.10;2.67;;;23.10;64.60;;;;;;5016887;28;20211;-73
2023/07/09 08:07:31;;;;;;;3.03;2.60;;;23.10;64.80;;;;;;5017418;28;20331;-71
2023/07/09 08:09:56;;;;;;;3.05;2.75;;;23.10;64.50;;;;;;5017143;28;20278;-72
2023/07/09 08:12:22;;;;;;;2.85;2.55;;;23.10;64.60;;;;;;5017119;28;20193;-72
2023/07/09 08:14:48;;;;;;;3.20;2.90;;;23.10;64.50;;;;;;5039646;28;20294;-73
2023/07/09 08:17:14;;;;;;;3.30;2.78;;;23.10;64.40;;;;;;5017035;28;20191;-73
2023/07/09 08:19:49;;;;;;;3.38;3.00;;;23.10;64.50;;;;;;5035335;28;20183;-72
2023/07/09 08:22:16;;;;;;;5.53;3.00;;;23.20;64.70;;;;;;5033757;28;20179;-73
2023/07/09 08:24:42;;;;;;;3.13;2.80;;;23.10;64.70;;;;;;5029319;28;20208;-73
2023/07/09 08:27:09;;;;;;;3.00;2.75;;;23.20;64.80;;;;;;5013986;28;20195;-73
2023/07/09 08:29:35;;;;;;;4.63;2.92;;;23.20;64.60;;;;;;5032801;28;20187;-74
2023/07/09 08:32:03;;;;;;;3.63;3.13;;;23.20;64.50;;;;;;5012818;28;20270;-72
2023/07/09 08:34:28;;;;;;;3.80;2.60;;;23.20;64.60;;;;;;5010988;28;20251;-74
2023/07/09 08:36:57;;;;;;;3.42;3.13;;;23.20;64.60;;;;;;5020804;28;20191;-74
2023/07/09 08:39:23;;;;;;;3.20;2.65;;;23.20;64.60;;;;;;5014986;28;20266;-73
2023/07/09 08:41:58;;;;;;;3.70;3.05;;;23.20;64.60;;;;;;5027111;28;20726;-74
2023/07/09 08:44:56;;;;;;;3.22;2.88;;;23.20;64.50;;;;;;5011219;28;20289;-74
2023/07/09 08:47:48;;;;;;;3.33;2.42;;;23.20;64.90;;;;;;5058590;28;20574;-74
2023/07/09 08:50:20;;;;;;;3.97;3.13;;;23.30;64.50;;;;;;5009997;28;20278;-73
2023/07/09 08:52:51;;;;;;;2.85;2.65;;;23.30;64.40;;;;;;5038914;28;20183;-73
2023/07/09 08:55:39;;;;;;;3.65;2.90;;;23.30;64.50;;;;;;5035228;28;20210;-73
2023/07/09 08:58:20;;;;;;;4.32;3.10;;;23.30;64.40;;;;;;5032107;28;20187;-73
2023/07/09 09:01:16;;;;;;;2.83;2.40;;;23.40;64.50;;;;;;5020549;28;20250;-73
2023/07/09 09:03:59;;;;;;;3.67;2.95;;;23.30;64.40;;;;;;5009023;28;20187;-72
2023/07/09 09:06:30;;;;;;;3.42;3.05;;;23.30;64.40;;;;;;5048100;28;20198;-73
2023/07/09 09:09:28;;;;;;;3.20;2.90;;;23.40;64.50;;;;;;5011764;28;20681;-74
2023/07/09 09:12:20;;;;;;;3.72;2.58;;;23.30;64.40;;;;;;5010936;28;20191;-73
2023/07/09 09:14:56;;;;;;;3.13;2.83;;;23.40;64.50;;;;;;5015438;28;20238;-72
2023/07/09 09:17:29;;;;;;;3.95;2.92;;;23.40;64.50;;;;;;5015911;28;20282;-74
2023/07/09 09:20:00;;;;;;;4.00;2.78;;;23.40;64.50;;;;;;5032417;28;20678;-74
2023/07/09 09:22:44;;;;;;;3.63;2.90;;;23.40;64.50;;;;;;5031745;28;20625;-74
2023/07/09 09:25:32;;;;;;;3.45;2.95;;;23.40;64.60;;;;;;5031307;28;20213;-74
2023/07/09 09:28:01;;;;;;;3.50;2.88;;;23.40;64.50;;;;;;5024051;28;20187;-73
2023/07/09 09:30:28;;;;;;;4.53;2.63;;;23.40;64.50;;;;;;5031876;28;20183;-74
2023/07/09 09:33:01;;;;;;;3.45;2.80;;;23.40;64.50;;;;;;5028876;28;20184;-73
2023/07/09 09:35:34;;;;;;;3.50;2.90;;;23.40;64.60;;;;;;5013907;28;20689;-73
2023/07/09 09:38:01;;;;;;;3.20;2.90;;;23.40;64.50;;;;;;5031275;28;20278;-73
2023/07/09 09:40:34;;;;;;;3.22;2.92;;;23.40;64.50;;;;;;5014445;28;20207;-71
2023/07/09 09:43:01;;;;;;;4.72;2.97;;;23.40;64.50;;;;;;5023077;28;20186;-73
2023/07/09 09:45:38;;;;;;;4.32;3.13;;;23.40;64.50;;;;;;5031951;28;20199;-73
2023/07/09 09:48:31;;;;;;;3.85;2.85;;;23.40;64.60;;;;;;5015447;28;20191;-72
2023/07/09 09:51:01;;;;;;;4.18;2.85;;;23.40;64.50;;;;;;5014766;28;20183;-74
2023/07/09 09:53:34;;;;;;;3.33;2.42;;;23.40;64.50;;;;;;5035737;28;20244;-73
2023/07/09 09:56:06;;;;;;;3.72;2.80;;;23.40;64.50;;;;;;5031285;28;20199;-74
2023/07/09 09:58:32;;;;;;;4.47;3.08;;;23.40;64.50;;;;;;5039763;28;20187;-74
2023/07/09 10:01:02;;;;;;;3.20;2.90;;;23.40;64.50;;;;;;5014876;28;20221;-74
2023/07/09 10:03:36;;;;;;;3.20;2.90;;;23.40;64.50;;;;;;5031522;28;20704;-74
2023/07/09 10:06:21;;;;;;;3.78;3.00;;;23.50;64.60;;;;;;5044194;28;20341;-73
2023/07/09 10:09:28;;;;;;;3.90;2.65;;;23.40;64.50;;;;;;5004594;28;20187;-73
2023/07/09 10:12:28;;;;;;;3.33;2.67;;;23.40;64.50;;;;;;5022911;28;20356;-73
2023/07/09 10:15:43;;;;;;;4.90;2.92;;;23.40;64.50;;;;;;5014571;28;20217;-74
2023/07/09 10:18:51;;;;;;;3.88;3.05;;;23.50;64.60;;;;;;5011905;28;20219;-73
2023/07/09 10:21:41;;;;;;;5.40;2.88;;;23.40;64.50;;;;;;5016616;28;20218;-74
2023/07/09 10:24:41;;;;;;;2.70;2.50;;;23.40;64.50;;;;;;5038112;28;20281;-74
2023/07/09 10:27:17;;;;;;;4.25;2.88;;;23.50;64.60;;;;;;5008024;28;20196;-72
2023/07/09 10:30:01;;;;;;;3.20;2.90;;;23.50;64.70;;;;;;5032814;28;20279;-70
2023/07/09 10:33:06;;;;;;;3.90;3.22;;;23.50;64.60;;;;;;5014267;28;20248;-73
2023/07/09 10:36:05;;;;;;;3.70;3.10;;;23.50;64.60;;;;;;5013796;28;20218;-72
2023/07/09 10:38:59;;;;;;;4.63;3.20;;;23.50;64.60;;;;;;4998414;28;20250;-75
2023/07/09 10:41:27;;;;;;;4.03;3.35;;;23.50;64.60;;;;;;5013219;28;20566;-74
2023/07/09 10:44:10;;;;;;;5.05;3.00;;;23.50;64.60;;;;;;5013325;28;20194;-74
2023/07/09 10:46:41;;;;;;;4.35;3.35;;;23.50;64.70;;;;;;5031752;28;20175;-72
2023/07/09 10:49:14;;;;;;;2.95;2.65;;;23.50;64.60;;;;;;5030690;28;20191;-74
2023/07/09 10:51:52;;;;;;;3.45;2.90;;;23.50;64.60;;;;;;5027719;28;20188;-73
2023/07/09 10:54:37;;;;;;;3.03;2.72;;;23.50;64.60;;;;;;5012432;28;20309;-74
2023/07/09 10:57:52;;;;;;;8.40;3.10;;;23.60;64.80;;;;;;5010531;28;20211;-73
2023/07/09 11:00:33;;;;;;;3.65;2.95;;;23.60;64.70;;;;;;4946370;28;20246;-73
2023/07/09 11:03:05;;;;;;;3.80;3.40;;;23.50;64.60;;;;;;5026146;28;20337;-73
2023/07/09 11:05:32;;;;;;;3.30;3.00;;;23.50;64.60;;;;;;5013877;28;20249;-73
2023/07/09 11:08:12;;;;;;;3.67;2.97;;;23.60;64.70;;;;;;5013936;28;20187;-74
2023/07/09 11:10:50;;;;;;;3.33;3.00;;;23.60;64.70;;;;;;5012091;28;20194;-74
2023/07/09 11:13:30;;;;;;;3.67;2.85;;;23.60;64.70;;;;;;5017828;28;20171;-73
2023/07/09 11:15:56;;;;;;;3.40;3.10;;;23.60;64.70;;;;;;5045943;28;20251;-73
2023/07/09 11:18:30;;;;;;;3.30;3.00;;;23.60;64.70;;;;;;5016708;28;20186;-73
2023/07/09 11:21:00;;;;;;;3.83;3.40;;;23.60;64.70;;;;;;5046245;28;20297;-73
2023/07/09 11:23:59;;;;;;;3.97;2.95;;;23.60;64.70;;;;;;5017450;28;20675;-71
2023/07/09 11:26:30;;;;;;;3.25;2.92;;;23.60;64.70;;;;;;5020096;28;20198;-74
2023/07/09 11:29:16;;;;;;;3.85;3.28;;;23.60;64.50;;;;;;5029460;28;20194;-73
2023/07/09 11:31:46;;;;;;;4.50;2.53;;;23.60;64.50;;;;;;5031360;28;20223;-74
2023/07/09 11:34:17;;;;;;;3.75;3.05;;;23.60;64.70;;;;;;5011709;28;20212;-74
2023/07/09 11:36:58;;;;;;;3.30;3.00;;;23.60;64.70;;;;;;5014476;28;20222;-73
2023/07/09 11:39:29;;;;;;;3.85;3.45;;;23.60;64.40;;;;;;5016325;28;20264;-73
2023/07/09 11:41:55;;;;;;;3.90;3.42;;;23.60;64.30;;;;;;5017503;28;20225;-73
2023/07/09 11:44:32;;;;;;;3.60;3.30;;;23.60;64.30;;;;;;5033714;28;20239;-73
2023/07/09 11:47:23;;;;;;;5.10;3.58;;;23.60;64.20;;;;;;5045722;28;20191;-74
2023/07/09 11:50:05;;;;;;;4.03;3.63;;;23.60;64.10;;;;;;5008211;28;20176;-73
2023/07/09 11:52:49;;;;;;;3.90;3.33;;;23.60;64.20;;;;;;5016869;28;20244;-73
2023/07/09 11:55:46;;;;;;;3.25;2.92;;;23.60;64.20;;;;;;5024526;28;20252;-73
2023/07/09 11:58:18;;;;;;;4.30;3.50;;;23.60;64.30;;;;;;5039875;28;20270;-74
2023/07/09 12:00:56;;;;;;;3.65;3.35;;;23.60;64.10;;;;;;5022138;28;20202;-73
2023/07/09 12:03:45;;;;;;;3.85;3.45;;;23.60;64.80;;;;;;5026491;28;20214;-74
2023/07/09 12:06:21;;;;;;;4.25;3.35;;;23.60;64.60;;;;;;5044839;28;20279;-74
2023/07/09 12:08:49;;;;;;;3.78;3.35;;;23.70;64.00;;;;;;5039228;28;20227;-73
2023/07/09 12:11:24;;;;;;;3.30;3.00;;;23.60;63.80;;;;;;5033410;28;20644;-73
2023/07/09 12:13:51;;;;;;;3.45;3.15;;;23.60;63.80;;;;;;5016645;28;20196;-73
2023/07/09 12:16:35;;;;;;;4.13;3.47;;;23.60;63.90;;;;;;5017158;28;20187;-74
2023/07/09 12:19:01;;;;;;;3.85;3.45;;;23.60;63.80;;;;;;5016725;28;20195;-72
2023/07/09 12:21:27;;;;;;;4.47;3.30;;;23.60;63.70;;;;;;5041736;28;20207;-73
2023/07/09 12:23:55;;;;;;;5.13;3.58;;;23.70;63.60;;;;;;5034692;28;20176;-73
2023/07/09 12:26:21;;;;;;;5.43;3.63;;;23.70;63.60;;;;;;5032625;28;20194;-73
2023/07/09 12:28:53;;;;;;;3.60;3.20;;;23.70;63.30;;;;;;5032819;28;20195;-72
2023/07/09 12:31:27;;;;;;;4.60;3.65;;;23.70;63.20;;;;;;5030536;28;20199;-73
2023/07/09 12:33:55;;;;;;;3.78;3.38;;;23.70;63.30;;;;;;5015657;28;20193;-73
2023/07/09 12:36:24;;;;;;;4.72;3.75;;;23.70;63.40;;;;;;5014328;28;20211;-73
2023/07/09 12:38:55;;;;;;;4.07;3.65;;;23.70;63.20;;;;;;5033287;28;20187;-73
2023/07/09 12:41:33;;;;;;;4.85;3.38;;;23.70;63.30;;;;;;5011178;28;20216;-74
2023/07/09 12:43:58;;;;;;;3.97;3.08;;;23.70;63.30;;;;;;5037542;28;20269;-72
2023/07/09 12:46:25;;;;;;;4.20;3.50;;;23.70;63.40;;;;;;5032480;28;20647;-73
2023/07/09 12:48:51;;;;;;;4.68;3.60;;;23.70;63.20;;;;;;5013100;28;20183;-74
2023/07/09 12:51:29;;;;;;;4.32;3.22;;;23.70;63.40;;;;;;5012970;28;20195;-73
2023/07/09 12:54:16;;;;;;;3.88;3.47;;;23.70;63.50;;;;;;5043683;28;20191;-74
2023/07/09 12:56:42;;;;;;;4.75;3.30;;;23.70;63.10;;;;;;5047071;28;20183;-74
2023/07/09 12:59:22;;;;;;;3.85;3.40;;;23.70;63.20;;;;;;5034082;28;20192;-74
2023/07/09 13:02:10;;;;;;;4.10;3.00;;;23.70;62.90;;;;;;5041368;28;20214;-73
2023/07/09 13:04:38;;;;;;;3.97;3.05;;;23.70;62.90;;;;;;5001315;28;20774;-73
2023/07/09 13:07:24;;;;;;;3.53;3.22;;;23.70;63.20;;;;;;5048441;28;20186;-73
2023/07/09 13:09:53;;;;;;;3.88;3.40;;;23.70;63.20;;;;;;5030967;28;20183;-72